createdAt,value
2023-05-11T00:02:37.618Z,7.70
2023-05-11T00:07:39.446Z,7.60
2023-05-11T00:12:41.381Z,7.50
2023-05-11T00:17:43.490Z,7.40
2023-05-11T00:22:45.363Z,7.30
2023-05-11T00:27:47.152Z,7.30
2023-05-11T00:32:51.557Z,7.30
2023-05-11T00:37:53.385Z,7.20
2023-05-11T00:42:55.121Z,7.20
2023-05-11T00:47:57.587Z,7.20
2023-05-11T00:52:59.978Z,7.10
2023-05-11T00:58:05.636Z,7.10
2023-05-11T01:03:07.668Z,7.10
2023-05-11T01:08:18.863Z,7.00
2023-05-11T01:13:42.416Z,7.00
2023-05-11T01:18:53.830Z,6.90
2023-05-11T01:24:34.431Z,6.80
2023-05-11T01:29:45.503Z,6.80
2023-05-11T01:34:48.859Z,6.70
2023-05-11T01:39:52.026Z,6.60
2023-05-11T01:44:55.489Z,6.70
2023-05-11T01:50:00.802Z,6.60
2023-05-11T01:55:05.659Z,6.60
2023-05-11T02:00:08.877Z,6.50
2023-05-11T02:05:11.872Z,6.40
2023-05-11T02:10:14.975Z,6.30
2023-05-11T02:15:17.424Z,6.30
2023-05-11T02:20:20.802Z,6.30
2023-05-11T02:25:24.566Z,6.40
2023-05-11T02:30:28.757Z,6.40
2023-05-11T02:35:37.010Z,6.40
2023-05-11T02:40:45.369Z,6.40
2023-05-11T02:45:50.786Z,6.40
2023-05-11T02:50:56.917Z,6.40
2023-05-11T02:55:58.975Z,6.50
2023-05-11T03:01:00.979Z,6.70
2023-05-11T03:06:02.857Z,6.80
2023-05-11T03:11:05.590Z,7.00
2023-05-11T03:16:08.823Z,7.20
2023-05-11T03:21:11.272Z,7.50
2023-05-11T03:26:13.568Z,7.80
2023-05-11T03:31:15.441Z,8.60
2023-05-11T03:36:18.356Z,9.20
2023-05-11T03:41:21.674Z,10.60
2023-05-11T03:46:24.667Z,12.50
2023-05-11T03:51:26.545Z,13.10
2023-05-11T03:56:28.409Z,13.10
2023-05-11T04:01:31.689Z,13.20
2023-05-11T04:06:33.429Z,13.30
2023-05-11T04:11:38.828Z,14.50
2023-05-11T04:16:40.981Z,16.20
2023-05-11T04:21:42.889Z,15.20
2023-05-11T04:26:44.725Z,14.90
2023-05-11T04:31:46.473Z,14.00
2023-05-11T04:36:49.495Z,13.20
2023-05-11T04:41:51.421Z,13.00
2023-05-11T04:46:57.234Z,12.80
2023-05-11T04:51:59.145Z,13.00
2023-05-11T04:57:00.994Z,13.60
2023-05-11T05:02:02.752Z,13.90
2023-05-11T05:07:04.655Z,13.90
2023-05-11T05:12:06.630Z,14.70
2023-05-11T05:17:08.408Z,14.80
2023-05-11T05:22:10.376Z,15.10
2023-05-11T05:27:12.141Z,15.20
2023-05-11T05:32:13.936Z,16.40
2023-05-11T05:37:15.640Z,19.20
2023-05-11T05:42:17.453Z,21.10
2023-05-11T05:47:19.280Z,24.70
2023-05-11T05:52:21.185Z,27.80
2023-05-11T05:57:22.957Z,30.10
2023-05-11T06:02:24.863Z,29.60
2023-05-11T06:07:26.685Z,27.20
2023-05-11T06:12:28.531Z,24.60
2023-05-11T06:17:30.431Z,22.60
2023-05-11T06:22:32.437Z,22.30
2023-05-11T06:27:34.317Z,20.80
2023-05-11T06:32:36.173Z,20.40
2023-05-11T06:37:37.969Z,21.20
2023-05-11T06:42:39.674Z,25.40
2023-05-11T06:47:42.085Z,30.10
2023-05-11T06:52:43.863Z,32.60
2023-05-11T06:57:46.588Z,34.50
2023-05-11T07:02:48.411Z,34.90
2023-05-11T07:07:50.165Z,35.10
2023-05-11T07:12:52.017Z,33.70
2023-05-11T07:17:53.905Z,33.20
2023-05-11T07:22:59.524Z,34.30
2023-05-11T07:28:01.468Z,35.30
2023-05-11T07:33:03.566Z,34.40
2023-05-11T07:38:08.003Z,35.40
2023-05-11T07:43:09.970Z,35.10
2023-05-11T07:48:11.864Z,35.50
2023-05-11T07:53:13.604Z,33.40
2023-05-11T07:58:15.445Z,34.40
2023-05-11T08:03:17.178Z,33.50
2023-05-11T08:08:19.213Z,33.70
2023-05-11T08:13:21.038Z,33.70
2023-05-11T08:18:22.908Z,32.20
2023-05-11T08:23:24.732Z,32.90
2023-05-11T08:28:26.681Z,31.80
2023-05-11T08:38:35.042Z,34.30
2023-05-11T08:43:39.675Z,28.10
2023-05-11T08:48:42.602Z,30.00
2023-05-11T08:53:45.685Z,32.20
2023-05-11T08:58:47.926Z,33.00
2023-05-11T09:03:50.888Z,35.50
2023-05-11T09:08:53.966Z,33.10
2023-05-11T09:13:55.657Z,32.80
2023-05-11T09:19:01.241Z,30.10
2023-05-11T09:24:03.742Z,30.80
2023-05-11T09:29:05.918Z,30.10
2023-05-11T09:34:16.261Z,30.50
2023-05-11T09:39:35.040Z,33.20
2023-05-11T09:44:39.020Z,32.40
2023-05-11T09:49:43.374Z,31.00
2023-05-11T09:54:52.732Z,30.20
2023-05-11T09:59:55.636Z,30.60
2023-05-11T10:04:59.674Z,27.20
2023-05-11T10:10:06.904Z,28.30
2023-05-11T10:15:10.606Z,29.80
2023-05-11T10:20:12.828Z,27.80
2023-05-11T10:25:15.809Z,26.20
2023-05-11T10:30:18.479Z,24.30
2023-05-11T10:35:22.180Z,24.00
2023-05-11T10:40:24.165Z,23.70
2023-05-11T10:45:47.156Z,23.90
2023-05-11T10:51:01.984Z,23.10
2023-05-11T10:56:24.658Z,22.20
2023-05-11T11:01:41.837Z,22.10
2023-05-11T11:06:44.472Z,22.30
2023-05-11T11:11:47.955Z,22.40
2023-05-11T11:17:14.762Z,22.70
2023-05-11T11:22:34.849Z,22.70
2023-05-11T11:27:45.998Z,22.30
2023-05-11T11:32:56.760Z,22.30
2023-05-11T11:38:03.471Z,21.60
2023-05-11T11:43:17.734Z,21.40
2023-05-11T11:48:28.626Z,22.00
2023-05-11T11:53:46.220Z,22.40
2023-05-11T11:58:47.881Z,22.90
2023-05-11T12:04:04.894Z,22.70
2023-05-11T12:09:08.078Z,22.10
2023-05-11T12:14:11.076Z,22.20
2023-05-11T12:19:23.911Z,22.30
2023-05-11T12:24:26.358Z,22.10
2023-05-11T12:29:28.199Z,22.00
2023-05-11T12:34:29.985Z,21.10
2023-05-11T12:39:32.037Z,20.90
2023-05-11T12:44:34.110Z,20.80
2023-05-11T12:49:35.966Z,20.80
2023-05-11T12:54:43.462Z,20.70
2023-05-11T12:59:45.402Z,20.80
2023-05-11T13:04:47.839Z,20.90
2023-05-11T13:09:58.188Z,21.00
2023-05-11T13:15:07.577Z,20.80
2023-05-11T13:20:33.249Z,21.00
2023-05-11T13:25:51.808Z,21.40
2023-05-11T13:31:01.532Z,21.20
2023-05-11T13:36:03.950Z,20.70
2023-05-11T13:41:06.808Z,20.60
2023-05-11T13:46:08.634Z,20.70
2023-05-11T13:51:10.346Z,21.00
2023-05-11T13:56:12.310Z,21.00
2023-05-11T14:01:14.111Z,20.90
2023-05-11T14:06:15.887Z,21.10
2023-05-11T14:11:17.667Z,21.20
2023-05-11T14:16:19.978Z,20.90
2023-05-11T14:21:21.835Z,20.80
2023-05-11T14:26:23.625Z,21.10
2023-05-11T14:31:26.469Z,20.90
2023-05-11T14:36:28.354Z,21.10
2023-05-11T14:41:30.742Z,20.90
2023-05-11T14:46:32.551Z,20.80
2023-05-11T14:51:35.185Z,20.70
2023-05-11T14:56:38.145Z,20.70
2023-05-11T15:01:40.003Z,20.60
2023-05-11T15:06:43.012Z,20.60
2023-05-11T15:11:44.843Z,20.70
2023-05-11T15:16:46.712Z,20.70
2023-05-11T15:21:48.593Z,20.80
2023-05-11T15:26:50.580Z,20.70
2023-05-11T15:31:52.586Z,20.70
2023-05-11T15:36:54.356Z,20.60
2023-05-11T15:41:56.137Z,20.60
2023-05-11T15:46:58.141Z,20.60
2023-05-11T15:52:00.305Z,20.60
2023-05-11T15:57:02.919Z,20.50
2023-05-11T16:02:05.408Z,20.40
2023-05-11T16:07:07.164Z,20.30
2023-05-11T16:12:09.264Z,20.40
2023-05-11T16:17:11.448Z,20.20
2023-05-11T16:22:13.270Z,20.20
2023-05-11T16:27:15.010Z,20.10
2023-05-11T16:32:16.888Z,19.90
2023-05-11T16:37:18.770Z,19.80
2023-05-11T16:42:21.054Z,19.60
2023-05-11T16:47:22.892Z,19.50
2023-05-11T16:52:24.771Z,19.30
2023-05-11T16:57:26.766Z,19.20
2023-05-11T17:02:28.830Z,19.10
2023-05-11T17:07:30.873Z,18.90
2023-05-11T17:12:32.663Z,18.70
2023-05-11T17:17:34.476Z,18.60
2023-05-11T17:22:36.209Z,18.50
2023-05-11T17:27:37.992Z,18.40
2023-05-11T17:32:39.961Z,18.10
2023-05-11T17:37:41.874Z,17.90
2023-05-11T17:42:43.616Z,17.60
2023-05-11T17:47:47.475Z,17.40
2023-05-11T17:52:51.044Z,17.30
2023-05-11T17:57:53.139Z,17.10
2023-05-11T18:02:55.000Z,16.80
2023-05-11T18:07:57.257Z,16.50
2023-05-11T18:12:58.981Z,16.20
2023-05-11T18:18:01.243Z,16.00
2023-05-11T18:23:03.845Z,15.70
2023-05-11T18:28:05.613Z,15.50
2023-05-11T18:33:07.479Z,15.20
2023-05-11T18:38:09.274Z,14.90
2023-05-11T18:43:11.041Z,14.80
2023-05-11T18:48:12.953Z,14.50
2023-05-11T18:53:14.700Z,14.30
2023-05-11T18:58:20.158Z,14.10
2023-05-11T19:03:22.494Z,13.90
2023-05-11T19:08:24.386Z,13.80
2023-05-11T19:13:26.383Z,13.60
2023-05-11T19:18:28.732Z,13.40
2023-05-11T19:23:31.757Z,13.20
2023-05-11T19:28:33.614Z,13.20
2023-05-11T19:33:35.421Z,13.20
2023-05-11T19:38:38.063Z,13.00
2023-05-11T19:43:39.797Z,12.90
2023-05-11T19:48:41.668Z,12.60
2023-05-11T19:53:43.637Z,12.50
2023-05-11T19:58:45.902Z,12.40
2023-05-11T20:03:47.796Z,12.30
2023-05-11T20:08:51.556Z,12.20
2023-05-11T20:13:53.891Z,12.10
2023-05-11T20:18:55.838Z,12.10
2023-05-11T20:23:57.732Z,12.10
2023-05-11T20:28:59.441Z,12.10
2023-05-11T20:39:07.132Z,11.80
2023-05-11T20:44:13.714Z,11.80
2023-05-11T20:49:22.198Z,11.80
2023-05-11T20:54:29.690Z,11.50
2023-05-11T21:04:38.862Z,11.30
2023-05-11T21:09:40.735Z,11.10
2023-05-11T21:14:42.481Z,11.00
2023-05-11T21:19:44.194Z,11.00
2023-05-11T21:24:46.309Z,10.90
2023-05-11T21:29:48.224Z,10.80
2023-05-11T21:34:50.288Z,10.70
2023-05-11T21:39:52.378Z,10.60
2023-05-11T21:44:54.170Z,10.50
2023-05-11T21:49:57.446Z,10.60
2023-05-11T21:54:59.354Z,10.40
2023-05-11T22:00:01.254Z,10.30
2023-05-11T22:05:03.038Z,10.20
2023-05-11T22:10:05.066Z,10.30
2023-05-11T22:15:08.768Z,10.20
2023-05-11T22:20:10.736Z,10.10
2023-05-11T22:25:12.505Z,10.10
2023-05-11T22:30:14.489Z,10.10
2023-05-11T22:35:16.966Z,10.10
2023-05-11T22:40:19.146Z,10.00
2023-05-11T22:45:21.144Z,10.00
2023-05-11T22:50:22.913Z,9.70
2023-05-11T22:55:25.166Z,9.60
2023-05-11T23:00:27.396Z,9.60
2023-05-11T23:05:29.618Z,9.60
2023-05-11T23:10:31.795Z,9.40
2023-05-11T23:15:33.535Z,9.30
2023-05-11T23:20:35.444Z,9.20
2023-05-11T23:25:37.489Z,9.00
2023-05-11T23:30:39.265Z,8.90
2023-05-11T23:35:41.728Z,8.80
2023-05-11T23:40:43.437Z,8.70
2023-05-11T23:45:45.443Z,8.60
2023-05-11T23:50:47.409Z,8.50
2023-05-11T23:55:49.184Z,8.50
